CDT,Max TemperatureF,Mean TemperatureF,Min TemperatureF,Max Dew PointF,MeanDew PointF,Min DewpointF,Max Humidity, Mean Humidity, Min Humidity, Max Sea Level PressureIn, Mean Sea Level PressureIn, Min Sea Level PressureIn, Max VisibilityMiles, Mean VisibilityMiles, Min VisibilityMiles, Max Wind SpeedMPH, Mean Wind SpeedMPH, Max Gust SpeedMPH,PrecipitationIn, CloudCover, Events, WindDirDegrees
2013-5-1,48,42,36,33,25,21,65,53,41,30.57,30.34,30.02,10,10,10,24,12,30,0.00,6,,324
2013-5-2,45,38,30,26,23,21,70,56,41,30.63,30.57,30.52,10,10,10,22,12,30,0.00,0,,357
2013-5-3,43,36,28,34,27,21,89,69,48,30.50,30.31,30.19,10,10,7,20,10,24,0.02,6,Rain,25
2013-5-4,42,37,32,38,33,30,92,86,79,30.25,30.21,30.15,10,8,2,13,8,18,0.19,8,Rain,24
2013-5-5,66,52,37,47,40,35,92,72,52,30.24,30.18,30.12,10,10,7,12,5,14,T,4,Rain,2
2013-5-6,72,54,36,47,42,36,100,69,38,30.17,30.11,30.05,10,8,2,9,2,14,0.00,1,,278
2013-5-7,77,61,44,49,45,41,100,65,29,30.09,30.03,29.97,10,8,2,17,4,23,0.00,1,,176
2013-5-8,73,63,52,56,50,45,93,66,38,30.04,30.02,29.98,10,9,4,16,7,22,0.12,6,Rain,356
2013-5-9,57,49,40,52,45,34,93,77,60,30.18,30.09,30.02,10,9,4,20,8,29,0.02,8,Rain,26
2013-5-10,65,49,32,38,26,20,70,44,18,30.21,30.09,29.91,10,10,10,29,7,40,0.00,1,,334
2013-5-11,51,42,33,37,24,17,70,50,29,30.24,30.15,30.01,10,10,10,31,15,46,T,3,Rain,336
2013-5-12,59,44,28,23,18,11,69,42,15,30.28,30.21,30.13,10,10,10,18,7,26,0.00,0,,334
2013-5-13,74,53,31,43,32,19,72,49,25,30.14,29.92,29.66,10,10,8,28,10,36,0.01,2,Rain,137
2013-5-14,95,69,42,47,42,26,96,54,12,29.71,29.62,29.49,10,10,10,33,13,43,T,1,,282
2013-5-15,83,65,47,43,40,34,80,49,18,29.93,29.84,29.75,10,10,10,23,8,29,0.00,0,,296
2013-5-16,81,64,47,43,36,28,80,50,19,29.95,29.91,29.85,10,10,10,17,8,31,0.00,1,,74
2013-5-17,65,60,54,56,46,27,93,58,22,30.01,29.97,29.92,10,8,1,16,9,23,0.17,8,Rain,105
2013-5-18,76,65,54,65,57,53,100,84,68,29.99,29.91,29.79,10,5,1,20,9,24,1.54,6,Rain-Thunderstorm,130
2013-5-19,79,69,58,66,63,61,100,82,64,29.79,29.66,29.57,10,6,1,21,9,25,0.67,7,Rain-Thunderstorm,129
2013-5-20,71,61,50,61,55,50,100,83,66,29.60,29.54,29.49,10,6,1,28,11,35,0.73,8,Rain,94
2013-5-21,50,48,45,49,46,43,100,93,86,29.80,29.67,29.54,10,6,2,16,10,22,0.49,8,Rain,52
2013-5-22,51,47,43,46,44,40,93,87,80,30.08,29.84,29.74,10,6,2,20,9,29,0.18,7,Rain,32
2013-5-23,64,53,42,40,34,29,89,59,29,30.37,30.28,30.10,10,10,10,15,8,23,0.00,0,,56
2013-5-24,66,52,37,52,38,30,93,61,28,30.41,30.33,30.23,10,9,3,20,8,25,0.56,3,Rain,126
2013-5-25,63,58,52,51,48,46,100,78,56,30.27,30.25,30.23,10,10,7,23,12,30,T,8,,128
2013-5-26,60,55,50,47,41,35,77,59,40,30.24,30.17,30.06,10,10,10,22,10,32,0.00,7,,114
2013-5-27,61,57,53,52,49,44,83,73,62,30.08,29.95,29.86,10,10,7,14,8,21,0.00,8,,102
2013-5-28,61,57,52,55,52,51,100,90,80,29.85,29.78,29.75,10,9,4,10,4,14,0.00,8,,111
2013-5-29,75,64,53,66,59,53,100,82,64,29.84,29.74,29.63,10,8,3,23,9,26,0.09,5,Rain-Thunderstorm,125
2013-5-30,73,68,62,64,62,59,93,80,66,29.67,29.56,29.51,10,10,2,24,12,32,0.16,7,Rain,143
2013-5-31,71,63,55,61,55,48,97,72,47,29.57,29.52,29.49,10,10,7,29,13,38,0.03,5,Rain-Thunderstorm,166